sensor_id;sensor_type;location;lat;lon;timestamp;P1;durP1;ratioP1;P2;durP2;ratioP2
7213;SDS011;3648;50.614;13.830;2023-09-19T00:00:56;1.40;;;1.30;;
7213;SDS011;3648;50.614;13.830;2023-09-19T00:03:23;1.93;;;1.43;;
7213;SDS011;3648;50.614;13.830;2023-09-19T00:05:52;2.00;;;1.53;;
7213;SDS011;3648;50.614;13.830;2023-09-19T00:08:20;3.77;;;1.60;;
7213;SDS011;3648;50.614;13.830;2023-09-19T00:10:49;2.70;;;1.23;;
7213;SDS011;3648;50.614;13.830;2023-09-19T00:13:18;1.60;;;1.20;;
7213;SDS011;3648;50.614;13.830;2023-09-19T00:15:46;2.30;;;1.37;;
7213;SDS011;3648;50.614;13.830;2023-09-19T00:18:15;4.10;;;1.73;;
7213;SDS011;3648;50.614;13.830;2023-09-19T00:20:42;1.57;;;1.10;;
7213;SDS011;3648;50.614;13.830;2023-09-19T00:23:14;2.33;;;1.50;;
7213;SDS011;3648;50.614;13.830;2023-09-19T00:25:41;2.77;;;1.63;;
7213;SDS011;3648;50.614;13.830;2023-09-19T00:28:08;1.93;;;1.53;;
7213;SDS011;3648;50.614;13.830;2023-09-19T00:30:36;1.73;;;1.57;;
7213;SDS011;3648;50.614;13.830;2023-09-19T00:33:04;1.70;;;1.60;;
7213;SDS011;3648;50.614;13.830;2023-09-19T00:35:32;2.07;;;1.80;;
7213;SDS011;3648;50.614;13.830;2023-09-19T00:37:59;3.83;;;1.90;;
7213;SDS011;3648;50.614;13.830;2023-09-19T00:40:28;3.67;;;1.80;;
7213;SDS011;3648;50.614;13.830;2023-09-19T00:42:57;2.83;;;1.77;;
7213;SDS011;3648;50.614;13.830;2023-09-19T00:45:25;2.63;;;1.90;;
7213;SDS011;3648;50.614;13.830;2023-09-19T00:47:53;2.13;;;1.77;;
7213;SDS011;3648;50.614;13.830;2023-09-19T00:50:22;2.13;;;1.80;;
7213;SDS011;3648;50.614;13.830;2023-09-19T00:52:52;2.33;;;1.77;;
7213;SDS011;3648;50.614;13.830;2023-09-19T00:55:22;8.77;;;1.77;;
7213;SDS011;3648;50.614;13.830;2023-09-19T00:57:52;2.90;;;1.73;;
7213;SDS011;3648;50.614;13.830;2023-09-19T01:00:21;2.70;;;1.70;;
7213;SDS011;3648;50.614;13.830;2023-09-19T01:02:49;3.73;;;2.00;;
7213;SDS011;3648;50.614;13.830;2023-09-19T01:05:16;2.30;;;1.50;;
7213;SDS011;3648;50.614;13.830;2023-09-19T01:07:44;4.43;;;2.00;;
7213;SDS011;3648;50.614;13.830;2023-09-19T01:10:14;4.40;;;2.17;;
7213;SDS011;3648;50.614;13.830;2023-09-19T01:12:47;2.80;;;1.90;;
7213;SDS011;3648;50.614;13.830;2023-09-19T01:15:26;3.33;;;1.90;;
7213;SDS011;3648;50.614;13.830;2023-09-19T01:18:08;3.23;;;2.27;;
7213;SDS011;3648;50.614;13.830;2023-09-19T05:33:07;2.53;;;2.33;;
7213;SDS011;3648;50.614;13.830;2023-09-19T05:35:34;2.70;;;2.40;;
7213;SDS011;3648;50.614;13.830;2023-09-19T05:38:02;3.33;;;2.23;;
7213;SDS011;3648;50.614;13.830;2023-09-19T05:40:30;2.20;;;2.00;;
7213;SDS011;3648;50.614;13.830;2023-09-19T05:42:57;2.30;;;2.10;;
7213;SDS011;3648;50.614;13.830;2023-09-19T05:45:24;2.77;;;2.27;;
7213;SDS011;3648;50.614;13.830;2023-09-19T05:47:52;2.33;;;2.13;;
7213;SDS011;3648;50.614;13.830;2023-09-19T05:50:22;2.30;;;2.10;;
7213;SDS011;3648;50.614;13.830;2023-09-19T05:52:52;3.47;;;2.80;;
7213;SDS011;3648;50.614;13.830;2023-09-19T05:55:21;2.63;;;2.43;;
7213;SDS011;3648;50.614;13.830;2023-09-19T05:57:50;2.30;;;2.10;;
7213;SDS011;3648;50.614;13.830;2023-09-19T06:00:17;4.33;;;2.30;;
7213;SDS011;3648;50.614;13.830;2023-09-19T06:02:48;3.37;;;2.53;;
7213;SDS011;3648;50.614;13.830;2023-09-19T06:05:17;2.27;;;1.80;;
7213;SDS011;3648;50.614;13.830;2023-09-19T06:07:45;2.90;;;2.50;;
7213;SDS011;3648;50.614;13.830;2023-09-19T06:10:12;2.50;;;2.30;;
7213;SDS011;3648;50.614;13.830;2023-09-19T06:12:40;3.10;;;2.80;;
7213;SDS011;3648;50.614;13.830;2023-09-19T06:15:09;3.03;;;2.77;;
7213;SDS011;3648;50.614;13.830;2023-09-19T06:17:40;3.10;;;2.67;;
7213;SDS011;3648;50.614;13.830;2023-09-19T06:20:07;3.57;;;2.70;;
7213;SDS011;3648;50.614;13.830;2023-09-19T06:22:40;3.03;;;2.67;;
7213;SDS011;3648;50.614;13.830;2023-09-19T06:25:09;3.17;;;2.87;;
7213;SDS011;3648;50.614;13.830;2023-09-19T06:27:38;5.20;;;2.87;;
7213;SDS011;3648;50.614;13.830;2023-09-19T06:30:06;2.77;;;2.57;;
7213;SDS011;3648;50.614;13.830;2023-09-19T06:32:34;3.37;;;2.80;;
7213;SDS011;3648;50.614;13.830;2023-09-19T06:35:01;2.50;;;2.30;;
7213;SDS011;3648;50.614;13.830;2023-09-19T06:37:33;2.40;;;2.20;;
7213;SDS011;3648;50.614;13.830;2023-09-19T06:40:00;2.30;;;2.10;;
7213;SDS011;3648;50.614;13.830;2023-09-19T06:42:29;2.57;;;2.33;;
7213;SDS011;3648;50.614;13.830;2023-09-19T06:44:56;2.10;;;2.00;;
7213;SDS011;3648;50.614;13.830;2023-09-19T06:47:23;1.87;;;1.77;;
7213;SDS011;3648;50.614;13.830;2023-09-19T06:49:51;1.97;;;1.73;;
7213;SDS011;3648;50.614;13.830;2023-09-19T06:52:18;3.33;;;2.00;;
7213;SDS011;3648;50.614;13.830;2023-09-19T06:54:47;2.27;;;2.00;;
7213;SDS011;3648;50.614;13.830;2023-09-19T06:57:15;2.40;;;2.20;;
7213;SDS011;3648;50.614;13.830;2023-09-19T06:59:43;2.50;;;1.87;;
7213;SDS011;3648;50.614;13.830;2023-09-19T07:02:11;2.40;;;2.20;;
7213;SDS011;3648;50.614;13.830;2023-09-19T07:04:38;2.37;;;1.97;;
7213;SDS011;3648;50.614;13.830;2023-09-19T07:07:05;2.77;;;2.43;;
7213;SDS011;3648;50.614;13.830;2023-09-19T07:09:34;2.23;;;2.03;;
7213;SDS011;3648;50.614;13.830;2023-09-19T07:12:02;3.17;;;2.60;;
7213;SDS011;3648;50.614;13.830;2023-09-19T07:14:29;2.87;;;2.50;;
7213;SDS011;3648;50.614;13.830;2023-09-19T07:16:58;3.87;;;2.60;;
7213;SDS011;3648;50.614;13.830;2023-09-19T07:19:27;3.03;;;2.47;;
7213;SDS011;3648;50.614;13.830;2023-09-19T07:21:55;3.00;;;2.80;;
7213;SDS011;3648;50.614;13.830;2023-09-19T07:24:24;4.27;;;3.00;;
7213;SDS011;3648;50.614;13.830;2023-09-19T07:26:53;3.47;;;3.03;;
7213;SDS011;3648;50.614;13.830;2023-09-19T07:29:20;2.63;;;2.40;;
7213;SDS011;3648;50.614;13.830;2023-09-19T07:31:47;4.57;;;2.80;;
7213;SDS011;3648;50.614;13.830;2023-09-19T07:34:16;2.20;;;2.00;;
7213;SDS011;3648;50.614;13.830;2023-09-19T07:36:43;3.30;;;2.10;;
7213;SDS011;3648;50.614;13.830;2023-09-19T07:39:12;2.87;;;2.27;;
7213;SDS011;3648;50.614;13.830;2023-09-19T07:41:39;2.57;;;2.37;;
7213;SDS011;3648;50.614;13.830;2023-09-19T07:44:06;5.00;;;2.47;;
7213;SDS011;3648;50.614;13.830;2023-09-19T07:46:33;3.07;;;2.60;;
7213;SDS011;3648;50.614;13.830;2023-09-19T07:48:59;3.33;;;2.57;;
7213;SDS011;3648;50.614;13.830;2023-09-19T07:51:28;2.07;;;1.87;;
7213;SDS011;3648;50.614;13.830;2023-09-19T07:53:55;2.17;;;1.97;;
7213;SDS011;3648;50.614;13.830;2023-09-19T07:56:22;3.20;;;2.17;;
7213;SDS011;3648;50.614;13.830;2023-09-19T07:58:50;2.93;;;2.23;;
7213;SDS011;3648;50.614;13.830;2023-09-19T08:01:17;2.50;;;2.30;;
7213;SDS011;3648;50.614;13.830;2023-09-19T08:03:44;1.87;;;1.77;;
7213;SDS011;3648;50.614;13.830;2023-09-19T08:06:11;2.30;;;2.10;;
7213;SDS011;3648;50.614;13.830;2023-09-19T08:08:41;2.83;;;1.90;;
7213;SDS011;3648;50.614;13.830;2023-09-19T08:11:07;3.70;;;2.07;;
7213;SDS011;3648;50.614;13.830;2023-09-19T08:13:37;2.20;;;1.93;;
7213;SDS011;3648;50.614;13.830;2023-09-19T08:16:08;2.87;;;2.00;;
7213;SDS011;3648;50.614;13.830;2023-09-19T08:18:36;2.67;;;1.90;;
7213;SDS011;3648;50.614;13.830;2023-09-19T08:21:05;2.33;;;2.00;;
7213;SDS011;3648;50.614;13.830;2023-09-19T08:23:33;2.93;;;2.10;;
7213;SDS011;3648;50.614;13.830;2023-09-19T08:26:01;2.20;;;2.03;;
7213;SDS011;3648;50.614;13.830;2023-09-19T08:28:32;2.67;;;1.87;;
7213;SDS011;3648;50.614;13.830;2023-09-19T08:31:01;2.57;;;2.13;;
7213;SDS011;3648;50.614;13.830;2023-09-19T08:33:29;3.13;;;2.50;;
7213;SDS011;3648;50.614;13.830;2023-09-19T08:35:57;2.33;;;2.13;;
7213;SDS011;3648;50.614;13.830;2023-09-19T08:38:24;3.77;;;2.47;;
7213;SDS011;3648;50.614;13.830;2023-09-19T08:40:54;2.10;;;1.90;;
7213;SDS011;3648;50.614;13.830;2023-09-19T08:43:26;2.83;;;2.07;;
7213;SDS011;3648;50.614;13.830;2023-09-19T08:45:54;2.07;;;1.70;;
7213;SDS011;3648;50.614;13.830;2023-09-19T08:48:29;3.30;;;1.93;;
7213;SDS011;3648;50.614;13.830;2023-09-19T08:51:00;3.13;;;1.77;;
7213;SDS011;3648;50.614;13.830;2023-09-19T08:53:31;2.07;;;1.87;;
7213;SDS011;3648;50.614;13.830;2023-09-19T08:56:08;1.90;;;1.70;;
7213;SDS011;3648;50.614;13.830;2023-09-19T08:58:41;2.20;;;1.60;;
7213;SDS011;3648;50.614;13.830;2023-09-19T09:01:13;1.97;;;1.57;;
7213;SDS011;3648;50.614;13.830;2023-09-19T09:03:42;2.33;;;1.90;;
7213;SDS011;3648;50.614;13.830;2023-09-19T09:06:12;2.27;;;1.60;;
7213;SDS011;3648;50.614;13.830;2023-09-19T09:08:41;1.70;;;1.50;;
7213;SDS011;3648;50.614;13.830;2023-09-19T09:11:10;2.97;;;1.77;;
7213;SDS011;3648;50.614;13.830;2023-09-19T09:13:37;2.70;;;1.60;;
7213;SDS011;3648;50.614;13.830;2023-09-19T09:16:07;2.60;;;1.43;;
7213;SDS011;3648;50.614;13.830;2023-09-19T09:18:35;1.50;;;1.40;;
7213;SDS011;3648;50.614;13.830;2023-09-19T09:21:02;1.90;;;1.57;;
7213;SDS011;3648;50.614;13.830;2023-09-19T09:23:30;2.33;;;1.90;;
7213;SDS011;3648;50.614;13.830;2023-09-19T09:25:58;2.00;;;1.80;;
7213;SDS011;3648;50.614;13.830;2023-09-19T09:28:28;1.63;;;1.50;;
7213;SDS011;3648;50.614;13.830;2023-09-19T09:30:56;1.90;;;1.80;;
7213;SDS011;3648;50.614;13.830;2023-09-19T09:33:25;1.70;;;1.60;;
7213;SDS011;3648;50.614;13.830;2023-09-19T09:35:54;1.60;;;1.50;;
7213;SDS011;3648;50.614;13.830;2023-09-19T09:38:23;2.10;;;1.60;;
7213;SDS011;3648;50.614;13.830;2023-09-19T09:40:52;1.50;;;1.40;;
7213;SDS011;3648;50.614;13.830;2023-09-19T09:43:25;1.80;;;1.47;;
7213;SDS011;3648;50.614;13.830;2023-09-19T09:46:06;3.07;;;1.70;;
7213;SDS011;3648;50.614;13.830;2023-09-19T09:49:00;2.80;;;1.90;;
7213;SDS011;3648;50.614;13.830;2023-09-19T09:51:45;1.50;;;1.40;;
7213;SDS011;3648;50.614;13.830;2023-09-19T09:54:22;2.60;;;1.53;;
7213;SDS011;3648;50.614;13.830;2023-09-19T09:56:53;1.53;;;1.33;;
7213;SDS011;3648;50.614;13.830;2023-09-19T09:59:43;2.83;;;1.77;;
7213;SDS011;3648;50.614;13.830;2023-09-19T10:02:16;1.83;;;1.47;;
7213;SDS011;3648;50.614;13.830;2023-09-19T10:04:50;2.63;;;1.20;;
7213;SDS011;3648;50.614;13.830;2023-09-19T10:07:24;1.83;;;1.17;;
7213;SDS011;3648;50.614;13.830;2023-09-19T10:09:56;1.40;;;1.20;;
7213;SDS011;3648;50.614;13.830;2023-09-19T10:12:30;1.27;;;1.07;;
7213;SDS011;3648;50.614;13.830;2023-09-19T10:14:59;1.13;;;0.80;;
7213;SDS011;3648;50.614;13.830;2023-09-19T10:17:28;2.60;;;1.00;;
7213;SDS011;3648;50.614;13.830;2023-09-19T10:19:58;1.20;;;0.80;;
7213;SDS011;3648;50.614;13.830;2023-09-19T10:22:34;1.03;;;0.93;;
7213;SDS011;3648;50.614;13.830;2023-09-19T10:25:02;1.90;;;1.03;;
7213;SDS011;3648;50.614;13.830;2023-09-19T10:27:33;0.90;;;0.90;;
7213;SDS011;3648;50.614;13.830;2023-09-19T10:30:04;1.43;;;1.33;;
7213;SDS011;3648;50.614;13.830;2023-09-19T10:32:34;1.37;;;1.00;;
7213;SDS011;3648;50.614;13.830;2023-09-19T10:35:03;0.70;;;0.70;;
7213;SDS011;3648;50.614;13.830;2023-09-19T10:37:32;1.50;;;0.80;;
7213;SDS011;3648;50.614;13.830;2023-09-19T10:40:03;1.60;;;1.10;;
7213;SDS011;3648;50.614;13.830;2023-09-19T10:42:33;1.17;;;1.00;;
7213;SDS011;3648;50.614;13.830;2023-09-19T10:45:06;1.10;;;0.80;;
7213;SDS011;3648;50.614;13.830;2023-09-19T10:47:38;2.10;;;0.90;;
7213;SDS011;3648;50.614;13.830;2023-09-19T10:50:07;0.90;;;0.80;;
7213;SDS011;3648;50.614;13.830;2023-09-19T10:52:38;0.80;;;0.77;;
7213;SDS011;3648;50.614;13.830;2023-09-19T10:55:08;1.00;;;0.80;;
7213;SDS011;3648;50.614;13.830;2023-09-19T10:57:36;2.77;;;0.80;;
7213;SDS011;3648;50.614;13.830;2023-09-19T11:00:04;2.67;;;0.90;;
7213;SDS011;3648;50.614;13.830;2023-09-19T11:08:57;0.70;;;0.70;;
7213;SDS011;3648;50.614;13.830;2023-09-19T11:11:39;0.80;;;0.70;;
7213;SDS011;3648;50.614;13.830;2023-09-19T11:14:37;1.13;;;0.60;;
7213;SDS011;3648;50.614;13.830;2023-09-19T11:20:21;0.70;;;0.67;;
7213;SDS011;3648;50.614;13.830;2023-09-19T11:25:56;2.10;;;0.67;;
7213;SDS011;3648;50.614;13.830;2023-09-19T11:40:11;0.90;;;0.77;;
7213;SDS011;3648;50.614;13.830;2023-09-19T11:42:42;0.60;;;0.60;;
7213;SDS011;3648;50.614;13.830;2023-09-19T11:48:22;1.27;;;0.83;;
7213;SDS011;3648;50.614;13.830;2023-09-19T11:50:50;0.93;;;0.60;;
7213;SDS011;3648;50.614;13.830;2023-09-19T11:53:18;0.80;;;0.70;;
7213;SDS011;3648;50.614;13.830;2023-09-19T11:55:48;1.43;;;0.80;;
7213;SDS011;3648;50.614;13.830;2023-09-19T11:58:16;0.80;;;0.70;;
7213;SDS011;3648;50.614;13.830;2023-09-19T12:00:45;0.70;;;0.50;;
7213;SDS011;3648;50.614;13.830;2023-09-19T12:03:19;2.10;;;0.80;;
7213;SDS011;3648;50.614;13.830;2023-09-19T12:05:50;0.63;;;0.57;;
7213;SDS011;3648;50.614;13.830;2023-09-19T12:08:17;1.00;;;0.70;;
7213;SDS011;3648;50.614;13.830;2023-09-19T12:10:48;0.83;;;0.80;;
7213;SDS011;3648;50.614;13.830;2023-09-19T12:13:17;0.90;;;0.70;;
7213;SDS011;3648;50.614;13.830;2023-09-19T12:15:45;1.83;;;0.93;;
7213;SDS011;3648;50.614;13.830;2023-09-19T12:18:26;0.80;;;0.67;;
7213;SDS011;3648;50.614;13.830;2023-09-19T12:20:54;1.97;;;0.80;;
7213;SDS011;3648;50.614;13.830;2023-09-19T12:23:23;1.87;;;0.80;;
7213;SDS011;3648;50.614;13.830;2023-09-19T12:25:52;1.23;;;0.93;;
7213;SDS011;3648;50.614;13.830;2023-09-19T12:28:22;0.80;;;0.70;;
7213;SDS011;3648;50.614;13.830;2023-09-19T12:30:55;2.40;;;1.00;;
7213;SDS011;3648;50.614;13.830;2023-09-19T12:33:23;1.70;;;0.90;;
7213;SDS011;3648;50.614;13.830;2023-09-19T12:35:51;1.47;;;0.97;;
7213;SDS011;3648;50.614;13.830;2023-09-19T12:38:23;1.57;;;0.90;;
7213;SDS011;3648;50.614;13.830;2023-09-19T12:40:52;1.10;;;0.93;;
7213;SDS011;3648;50.614;13.830;2023-09-19T12:43:19;1.23;;;0.77;;
7213;SDS011;3648;50.614;13.830;2023-09-19T12:45:47;1.83;;;1.00;;
7213;SDS011;3648;50.614;13.830;2023-09-19T12:48:17;1.00;;;0.70;;
7213;SDS011;3648;50.614;13.830;2023-09-19T12:50:59;0.90;;;0.70;;
7213;SDS011;3648;50.614;13.830;2023-09-19T12:53:33;2.17;;;0.80;;
7213;SDS011;3648;50.614;13.830;2023-09-19T12:56:06;2.50;;;0.93;;
7213;SDS011;3648;50.614;13.830;2023-09-19T12:58:34;1.63;;;1.00;;
7213;SDS011;3648;50.614;13.830;2023-09-19T13:01:14;0.97;;;0.77;;
7213;SDS011;3648;50.614;13.830;2023-09-19T13:03:43;2.17;;;0.90;;
7213;SDS011;3648;50.614;13.830;2023-09-19T13:06:11;1.33;;;1.00;;
7213;SDS011;3648;50.614;13.830;2023-09-19T13:08:42;1.07;;;0.80;;
7213;SDS011;3648;50.614;13.830;2023-09-19T13:11:16;0.97;;;0.87;;
7213;SDS011;3648;50.614;13.830;2023-09-19T13:13:46;1.70;;;0.90;;
7213;SDS011;3648;50.614;13.830;2023-09-19T13:16:18;1.40;;;1.10;;
7213;SDS011;3648;50.614;13.830;2023-09-19T13:18:48;1.03;;;0.90;;
7213;SDS011;3648;50.614;13.830;2023-09-19T13:21:27;1.13;;;0.77;;
7213;SDS011;3648;50.614;13.830;2023-09-19T13:26:47;1.57;;;0.70;;
7213;SDS011;3648;50.614;13.830;2023-09-19T13:29:15;1.40;;;0.80;;
7213;SDS011;3648;50.614;13.830;2023-09-19T13:31:45;2.03;;;0.90;;
7213;SDS011;3648;50.614;13.830;2023-09-19T13:34:12;2.50;;;1.10;;
7213;SDS011;3648;50.614;13.830;2023-09-19T13:36:41;3.03;;;0.90;;
7213;SDS011;3648;50.614;13.830;2023-09-19T13:39:08;0.80;;;0.80;;
7213;SDS011;3648;50.614;13.830;2023-09-19T13:41:38;1.50;;;0.70;;
7213;SDS011;3648;50.614;13.830;2023-09-19T13:44:06;2.20;;;0.80;;
7213;SDS011;3648;50.614;13.830;2023-09-19T13:46:35;0.83;;;0.80;;
7213;SDS011;3648;50.614;13.830;2023-09-19T13:49:02;1.37;;;0.83;;
7213;SDS011;3648;50.614;13.830;2023-09-19T13:51:30;1.47;;;1.00;;
7213;SDS011;3648;50.614;13.830;2023-09-19T13:53:57;0.93;;;0.83;;
7213;SDS011;3648;50.614;13.830;2023-09-19T13:56:25;1.13;;;0.97;;
7213;SDS011;3648;50.614;13.830;2023-09-19T13:58:53;1.33;;;1.00;;
7213;SDS011;3648;50.614;13.830;2023-09-19T14:01:21;0.80;;;0.80;;
7213;SDS011;3648;50.614;13.830;2023-09-19T14:03:48;1.20;;;0.90;;
7213;SDS011;3648;50.614;13.830;2023-09-19T14:06:16;1.10;;;0.77;;
7213;SDS011;3648;50.614;13.830;2023-09-19T14:08:43;3.07;;;1.10;;
7213;SDS011;3648;50.614;13.830;2023-09-19T14:11:13;1.13;;;0.90;;
7213;SDS011;3648;50.614;13.830;2023-09-19T14:13:41;0.93;;;0.70;;
7213;SDS011;3648;50.614;13.830;2023-09-19T14:16:12;2.23;;;1.00;;
7213;SDS011;3648;50.614;13.830;2023-09-19T14:18:40;1.97;;;0.77;;
7213;SDS011;3648;50.614;13.830;2023-09-19T14:21:07;1.33;;;0.80;;
7213;SDS011;3648;50.614;13.830;2023-09-19T14:23:36;2.07;;;0.90;;
7213;SDS011;3648;50.614;13.830;2023-09-19T14:26:03;0.90;;;0.87;;
7213;SDS011;3648;50.614;13.830;2023-09-19T14:28:31;1.30;;;0.90;;
7213;SDS011;3648;50.614;13.830;2023-09-19T14:31:03;3.10;;;1.67;;
7213;SDS011;3648;50.614;13.830;2023-09-19T14:33:31;2.30;;;0.90;;
7213;SDS011;3648;50.614;13.830;2023-09-19T14:36:00;1.83;;;0.80;;
7213;SDS011;3648;50.614;13.830;2023-09-19T14:38:30;1.17;;;0.83;;
7213;SDS011;3648;50.614;13.830;2023-09-19T14:40:59;7.70;;;1.03;;
7213;SDS011;3648;50.614;13.830;2023-09-19T14:43:26;1.20;;;0.83;;
7213;SDS011;3648;50.614;13.830;2023-09-19T14:45:55;1.97;;;1.07;;
7213;SDS011;3648;50.614;13.830;2023-09-19T14:48:22;2.53;;;1.00;;
7213;SDS011;3648;50.614;13.830;2023-09-19T14:50:51;2.27;;;1.07;;
7213;SDS011;3648;50.614;13.830;2023-09-19T14:53:20;1.20;;;0.90;;
7213;SDS011;3648;50.614;13.830;2023-09-19T14:55:47;1.93;;;1.30;;
7213;SDS011;3648;50.614;13.830;2023-09-19T14:58:17;1.93;;;1.10;;
7213;SDS011;3648;50.614;13.830;2023-09-19T15:00:44;1.87;;;1.00;;
7213;SDS011;3648;50.614;13.830;2023-09-19T15:03:12;2.40;;;1.03;;
7213;SDS011;3648;50.614;13.830;2023-09-19T15:05:41;1.87;;;1.20;;
7213;SDS011;3648;50.614;13.830;2023-09-19T15:08:08;1.90;;;1.00;;
7213;SDS011;3648;50.614;13.830;2023-09-19T15:10:37;1.70;;;1.00;;
7213;SDS011;3648;50.614;13.830;2023-09-19T15:13:04;1.67;;;1.07;;
7213;SDS011;3648;50.614;13.830;2023-09-19T15:15:31;1.17;;;1.00;;
7213;SDS011;3648;50.614;13.830;2023-09-19T15:17:58;1.53;;;1.07;;
7213;SDS011;3648;50.614;13.830;2023-09-19T15:20:25;2.57;;;1.10;;
7213;SDS011;3648;50.614;13.830;2023-09-19T15:22:52;1.47;;;1.20;;
7213;SDS011;3648;50.614;13.830;2023-09-19T15:25:19;2.20;;;1.10;;
7213;SDS011;3648;50.614;13.830;2023-09-19T15:27:47;2.20;;;1.33;;
7213;SDS011;3648;50.614;13.830;2023-09-19T15:30:15;1.97;;;1.20;;
7213;SDS011;3648;50.614;13.830;2023-09-19T15:32:42;1.60;;;1.10;;
7213;SDS011;3648;50.614;13.830;2023-09-19T15:35:09;2.53;;;1.27;;
7213;SDS011;3648;50.614;13.830;2023-09-19T15:37:37;5.90;;;1.37;;
7213;SDS011;3648;50.614;13.830;2023-09-19T15:40:06;2.77;;;1.30;;
7213;SDS011;3648;50.614;13.830;2023-09-19T15:42:36;1.83;;;1.40;;
7213;SDS011;3648;50.614;13.830;2023-09-19T15:45:05;2.13;;;1.20;;
7213;SDS011;3648;50.614;13.830;2023-09-19T15:47:34;2.17;;;1.13;;
7213;SDS011;3648;50.614;13.830;2023-09-19T15:50:02;2.33;;;1.40;;
7213;SDS011;3648;50.614;13.830;2023-09-19T15:52:30;3.73;;;1.57;;
7213;SDS011;3648;50.614;13.830;2023-09-19T15:54:57;2.63;;;2.33;;
7213;SDS011;3648;50.614;13.830;2023-09-19T15:57:24;2.50;;;1.70;;
7213;SDS011;3648;50.614;13.830;2023-09-19T15:59:51;2.60;;;1.87;;
7213;SDS011;3648;50.614;13.830;2023-09-19T16:02:19;3.17;;;1.40;;
7213;SDS011;3648;50.614;13.830;2023-09-19T16:04:46;4.57;;;1.73;;
7213;SDS011;3648;50.614;13.830;2023-09-19T16:07:15;2.13;;;1.27;;
7213;SDS011;3648;50.614;13.830;2023-09-19T16:09:44;3.03;;;1.40;;
7213;SDS011;3648;50.614;13.830;2023-09-19T16:12:10;3.60;;;1.37;;
7213;SDS011;3648;50.614;13.830;2023-09-19T16:14:39;1.57;;;1.07;;
7213;SDS011;3648;50.614;13.830;2023-09-19T16:17:06;1.53;;;1.20;;
7213;SDS011;3648;50.614;13.830;2023-09-19T16:19:34;2.83;;;1.30;;
7213;SDS011;3648;50.614;13.830;2023-09-19T16:22:01;4.30;;;1.50;;
7213;SDS011;3648;50.614;13.830;2023-09-19T16:24:29;3.73;;;1.30;;
7213;SDS011;3648;50.614;13.830;2023-09-19T16:26:56;1.97;;;1.63;;
7213;SDS011;3648;50.614;13.830;2023-09-19T16:29:25;2.40;;;1.40;;
7213;SDS011;3648;50.614;13.830;2023-09-19T16:31:52;3.50;;;1.40;;
7213;SDS011;3648;50.614;13.830;2023-09-19T16:34:19;5.20;;;1.60;;
7213;SDS011;3648;50.614;13.830;2023-09-19T16:36:48;3.13;;;1.37;;
7213;SDS011;3648;50.614;13.830;2023-09-19T16:39:15;1.77;;;1.23;;
7213;SDS011;3648;50.614;13.830;2023-09-19T16:41:42;1.57;;;1.30;;
7213;SDS011;3648;50.614;13.830;2023-09-19T16:44:09;2.00;;;1.20;;
7213;SDS011;3648;50.614;13.830;2023-09-19T16:46:36;3.37;;;1.80;;
7213;SDS011;3648;50.614;13.830;2023-09-19T16:49:03;6.00;;;1.43;;
7213;SDS011;3648;50.614;13.830;2023-09-19T16:51:30;4.07;;;1.40;;
7213;SDS011;3648;50.614;13.830;2023-09-19T16:53:59;4.10;;;1.60;;
7213;SDS011;3648;50.614;13.830;2023-09-19T16:56:26;1.90;;;1.20;;
7213;SDS011;3648;50.614;13.830;2023-09-19T16:58:55;3.07;;;1.10;;
7213;SDS011;3648;50.614;13.830;2023-09-19T17:01:23;2.23;;;1.53;;
7213;SDS011;3648;50.614;13.830;2023-09-19T17:03:52;1.73;;;1.60;;
7213;SDS011;3648;50.614;13.830;2023-09-19T17:06:19;2.57;;;1.20;;
7213;SDS011;3648;50.614;13.830;2023-09-19T17:08:49;4.63;;;1.50;;
7213;SDS011;3648;50.614;13.830;2023-09-19T17:11:18;4.33;;;1.23;;
7213;SDS011;3648;50.614;13.830;2023-09-19T17:13:46;3.43;;;1.50;;
7213;SDS011;3648;50.614;13.830;2023-09-19T17:16:17;2.23;;;1.57;;
7213;SDS011;3648;50.614;13.830;2023-09-19T17:18:49;2.20;;;1.53;;
7213;SDS011;3648;50.614;13.830;2023-09-19T17:21:18;1.90;;;1.43;;
7213;SDS011;3648;50.614;13.830;2023-09-19T17:23:46;2.83;;;1.30;;
7213;SDS011;3648;50.614;13.830;2023-09-19T17:26:14;3.50;;;1.20;;
7213;SDS011;3648;50.614;13.830;2023-09-19T17:28:44;3.00;;;1.57;;
7213;SDS011;3648;50.614;13.830;2023-09-19T17:31:13;3.13;;;1.40;;
7213;SDS011;3648;50.614;13.830;2023-09-19T17:33:42;3.47;;;1.40;;
7213;SDS011;3648;50.614;13.830;2023-09-19T17:36:10;8.80;;;3.87;;
7213;SDS011;3648;50.614;13.830;2023-09-19T17:38:39;5.00;;;3.03;;
7213;SDS011;3648;50.614;13.830;2023-09-19T17:41:06;4.57;;;3.63;;
7213;SDS011;3648;50.614;13.830;2023-09-19T17:43:34;3.93;;;3.53;;
7213;SDS011;3648;50.614;13.830;2023-09-19T17:46:10;4.63;;;2.77;;
7213;SDS011;3648;50.614;13.830;2023-09-19T17:48:39;4.03;;;2.27;;
7213;SDS011;3648;50.614;13.830;2023-09-19T17:51:09;3.83;;;1.77;;
7213;SDS011;3648;50.614;13.830;2023-09-19T17:53:38;2.07;;;1.50;;
7213;SDS011;3648;50.614;13.830;2023-09-19T17:56:07;2.60;;;1.50;;
7213;SDS011;3648;50.614;13.830;2023-09-19T17:58:35;1.40;;;1.20;;
7213;SDS011;3648;50.614;13.830;2023-09-19T18:01:07;1.80;;;1.50;;
7213;SDS011;3648;50.614;13.830;2023-09-19T18:03:39;1.90;;;1.30;;
7213;SDS011;3648;50.614;13.830;2023-09-19T18:06:07;1.97;;;1.63;;
7213;SDS011;3648;50.614;13.830;2023-09-19T18:08:36;1.90;;;1.33;;
7213;SDS011;3648;50.614;13.830;2023-09-19T18:11:04;3.37;;;1.37;;
7213;SDS011;3648;50.614;13.830;2023-09-19T18:13:41;1.90;;;1.37;;
7213;SDS011;3648;50.614;13.830;2023-09-19T18:16:10;4.07;;;1.30;;
7213;SDS011;3648;50.614;13.830;2023-09-19T18:18:37;3.67;;;1.13;;
7213;SDS011;3648;50.614;13.830;2023-09-19T18:21:05;2.10;;;1.50;;
7213;SDS011;3648;50.614;13.830;2023-09-19T18:23:32;1.80;;;1.20;;
7213;SDS011;3648;50.614;13.830;2023-09-19T18:26:00;3.23;;;1.03;;
7213;SDS011;3648;50.614;13.830;2023-09-19T18:28:30;4.73;;;1.27;;
7213;SDS011;3648;50.614;13.830;2023-09-19T18:30:57;1.63;;;1.03;;
7213;SDS011;3648;50.614;13.830;2023-09-19T18:33:26;2.60;;;1.27;;
7213;SDS011;3648;50.614;13.830;2023-09-19T18:35:53;1.60;;;1.27;;
7213;SDS011;3648;50.614;13.830;2023-09-19T18:38:27;5.77;;;1.80;;
7213;SDS011;3648;50.614;13.830;2023-09-19T18:40:54;3.50;;;1.23;;
7213;SDS011;3648;50.614;13.830;2023-09-19T18:43:21;4.73;;;1.47;;
7213;SDS011;3648;50.614;13.830;2023-09-19T18:45:54;3.23;;;1.57;;
7213;SDS011;3648;50.614;13.830;2023-09-19T18:48:21;4.77;;;1.90;;
7213;SDS011;3648;50.614;13.830;2023-09-19T18:50:51;4.20;;;1.77;;
7213;SDS011;3648;50.614;13.830;2023-09-19T18:53:18;5.10;;;1.90;;
7213;SDS011;3648;50.614;13.830;2023-09-19T18:55:48;4.73;;;1.50;;
7213;SDS011;3648;50.614;13.830;2023-09-19T18:58:16;10.80;;;2.30;;
7213;SDS011;3648;50.614;13.830;2023-09-19T19:00:43;13.23;;;2.53;;
7213;SDS011;3648;50.614;13.830;2023-09-19T19:03:11;5.30;;;2.50;;
7213;SDS011;3648;50.614;13.830;2023-09-19T19:05:40;5.63;;;2.30;;
7213;SDS011;3648;50.614;13.830;2023-09-19T19:08:08;7.03;;;2.10;;
7213;SDS011;3648;50.614;13.830;2023-09-19T19:10:38;5.73;;;2.00;;
7213;SDS011;3648;50.614;13.830;2023-09-19T19:13:05;7.60;;;2.30;;
7213;SDS011;3648;50.614;13.830;2023-09-19T19:15:33;6.30;;;2.70;;
7213;SDS011;3648;50.614;13.830;2023-09-19T19:18:00;7.97;;;2.37;;
7213;SDS011;3648;50.614;13.830;2023-09-19T19:20:28;6.60;;;1.93;;
7213;SDS011;3648;50.614;13.830;2023-09-19T19:22:55;4.67;;;2.20;;
7213;SDS011;3648;50.614;13.830;2023-09-19T19:25:24;3.50;;;2.40;;
7213;SDS011;3648;50.614;13.830;2023-09-19T19:27:51;6.07;;;2.00;;
7213;SDS011;3648;50.614;13.830;2023-09-19T19:30:19;6.03;;;2.43;;
7213;SDS011;3648;50.614;13.830;2023-09-19T19:32:46;4.60;;;2.30;;
7213;SDS011;3648;50.614;13.830;2023-09-19T19:35:13;11.63;;;2.17;;
7213;SDS011;3648;50.614;13.830;2023-09-19T19:37:43;6.80;;;1.90;;
7213;SDS011;3648;50.614;13.830;2023-09-19T19:40:11;4.37;;;1.90;;
7213;SDS011;3648;50.614;13.830;2023-09-19T19:42:39;4.47;;;1.80;;
7213;SDS011;3648;50.614;13.830;2023-09-19T19:45:07;4.00;;;1.60;;
7213;SDS011;3648;50.614;13.830;2023-09-19T19:47:34;7.13;;;2.40;;
7213;SDS011;3648;50.614;13.830;2023-09-19T19:50:01;6.90;;;1.80;;
7213;SDS011;3648;50.614;13.830;2023-09-19T19:52:29;2.10;;;1.50;;
7213;SDS011;3648;50.614;13.830;2023-09-19T19:54:58;11.57;;;2.23;;